Time;durP1;ratioP1;P1;durP2;ratioP2;P2;SDS_P1;SDS_P2;PMS_P1;PMS_P2;Temp;Humidity;BMP_temperature;BMP_pressure;BME280_temperature;BME280_humidity;BME280_pressure;Samples;Min_cycle;Max_cycle;Signal;HPM_P1;HPM_P2
2021/04/10 00:01:39;;;;;;;41.90;21.17;;;7.40;99.90;;;;;;5075274;28;20503;-66
2021/04/10 00:04:06;;;;;;;41.40;22.08;;;7.30;99.90;;;;;;5087158;28;20135;-66
2021/04/10 00:06:31;;;;;;;39.25;22.20;;;7.20;99.90;;;;;;5091563;28;20028;-66
2021/04/10 00:08:58;;;;;;;40.42;22.27;;;7.30;99.90;;;;;;5080208;28;20036;-67
2021/04/10 00:11:25;;;;;;;41.78;21.95;;;7.30;99.90;;;;;;5077227;28;20189;-67
2021/04/10 00:13:50;;;;;;;42.05;22.13;;;7.20;99.90;;;;;;5096865;28;20024;-67
2021/04/10 00:16:16;;;;;;;48.13;23.40;;;7.20;99.90;;;;;;5079434;28;20599;-67
2021/04/10 00:18:42;;;;;;;43.65;22.98;;;7.10;99.90;;;;;;5092294;28;20031;-66
2021/04/10 00:21:07;;;;;;;48.33;24.23;;;7.30;99.90;;;;;;5096735;28;20114;-66
2021/04/10 00:23:33;;;;;;;43.85;24.98;;;7.30;99.90;;;;;;5090754;28;20039;-66
2021/04/10 00:25:58;;;;;;;49.50;25.77;;;7.20;99.90;;;;;;5096401;28;20671;-66
2021/04/10 00:28:24;;;;;;;44.78;24.45;;;7.20;99.90;;;;;;5095141;28;20036;-67
2021/04/10 00:30:50;;;;;;;44.25;23.70;;;7.20;99.90;;;;;;5087033;28;20116;-67
2021/04/10 00:33:15;;;;;;;45.13;24.40;;;7.10;99.90;;;;;;5086664;28;20056;-67
2021/04/10 00:35:41;;;;;;;44.03;23.80;;;7.00;99.90;;;;;;5087428;28;20035;-67
2021/04/10 00:38:06;;;;;;;47.13;24.33;;;7.10;99.90;;;;;;5096502;28;20031;-65
2021/04/10 00:40:32;;;;;;;45.78;24.63;;;7.00;99.90;;;;;;5085762;28;20024;-66
2021/04/10 00:42:58;;;;;;;44.38;24.80;;;7.00;99.90;;;;;;5088410;28;20040;-66
2021/04/10 00:45:23;;;;;;;43.53;23.75;;;7.00;99.90;;;;;;5090863;28;20027;-66
2021/04/10 00:47:49;;;;;;;47.45;24.02;;;7.00;99.90;;;;;;5089481;28;20024;-66
2021/04/10 00:50:15;;;;;;;47.30;23.65;;;7.00;99.90;;;;;;5075042;28;20471;-66
2021/04/10 00:52:42;;;;;;;44.72;22.83;;;7.10;99.90;;;;;;5074103;28;20033;-66
2021/04/10 00:55:10;;;;;;;42.63;24.23;;;7.00;99.90;;;;;;5085524;28;20459;-66
2021/04/10 00:57:35;;;;;;;43.47;24.30;;;7.00;99.90;;;;;;5081635;28;20039;-66
2021/04/10 01:00:03;;;;;;;45.65;24.23;;;6.90;99.90;;;;;;5084832;28;20020;-66
2021/04/10 01:02:29;;;;;;;49.10;24.83;;;6.90;99.90;;;;;;5068308;28;20476;-66
2021/04/10 01:04:55;;;;;;;47.58;25.30;;;7.00;99.90;;;;;;5076250;28;20051;-66
2021/04/10 01:07:21;;;;;;;48.25;25.20;;;6.80;99.90;;;;;;5080175;28;20034;-66
2021/04/10 01:09:48;;;;;;;53.88;26.17;;;6.70;99.90;;;;;;5052700;28;20066;-66
2021/04/10 01:12:14;;;;;;;50.92;25.73;;;6.80;99.90;;;;;;5089828;28;20035;-66
2021/04/10 01:15:09;;;;;;;50.80;25.60;;;6.70;99.90;;;;;;5097266;28;20405;-66
2021/04/10 01:17:47;;;;;;;52.00;27.15;;;6.70;99.90;;;;;;5074553;28;20032;-66
2021/04/10 01:20:43;;;;;;;48.05;25.58;;;6.60;99.90;;;;;;5086314;28;20034;-66
2021/04/10 01:23:23;;;;;;;50.15;25.00;;;6.60;99.90;;;;;;5089067;28;20190;-66
2021/04/10 01:25:55;;;;;;;52.72;27.10;;;6.60;99.90;;;;;;5096584;28;20024;-66
2021/04/10 01:28:42;;;;;;;51.53;26.98;;;6.60;99.90;;;;;;5087970;28;20051;-66
2021/04/10 01:31:08;;;;;;;49.55;25.90;;;6.60;99.90;;;;;;5080404;28;20035;-66
2021/04/10 01:33:40;;;;;;;53.65;26.63;;;6.70;99.90;;;;;;5089576;28;20429;-66
2021/04/10 01:36:07;;;;;;;51.70;26.02;;;6.70;99.90;;;;;;5088672;28;20031;-66
2021/04/10 01:38:34;;;;;;;53.35;27.25;;;6.80;99.90;;;;;;5088303;28;20020;-66
2021/04/10 01:41:03;;;;;;;55.42;28.67;;;6.70;99.90;;;;;;5092392;28;20027;-66
2021/04/10 01:43:32;;;;;;;57.35;28.30;;;6.60;99.90;;;;;;5087944;28;20457;-66
2021/04/10 01:45:59;;;;;;;55.55;27.27;;;6.50;99.90;;;;;;5089195;28;20024;-66
2021/04/10 01:48:27;;;;;;;55.85;28.88;;;6.50;99.90;;;;;;5090868;28;20068;-66
2021/04/10 01:50:55;;;;;;;58.60;28.35;;;6.50;99.90;;;;;;5081362;28;20504;-66
2021/04/10 01:53:21;;;;;;;56.67;29.02;;;6.50;99.90;;;;;;5079685;28;20467;-66
2021/04/10 01:55:49;;;;;;;61.45;30.15;;;6.50;99.90;;;;;;5086967;28;20088;-66
2021/04/10 01:58:18;;;;;;;62.90;30.02;;;6.60;99.90;;;;;;5086665;28;20012;-66
2021/04/10 02:00:45;;;;;;;54.85;29.42;;;6.80;99.90;;;;;;5090643;28;20689;-66
2021/04/10 02:03:21;;;;;;;53.38;28.65;;;6.70;99.90;;;;;;5085802;28;20044;-66
2021/04/10 02:05:49;;;;;;;58.38;28.58;;;6.70;99.90;;;;;;5083220;28;20501;-66
2021/04/10 02:08:16;;;;;;;58.42;28.73;;;6.60;99.90;;;;;;5088390;28;20028;-66
2021/04/10 02:10:42;;;;;;;61.40;29.38;;;6.60;99.90;;;;;;5080832;28;20036;-66
2021/04/10 02:13:10;;;;;;;62.08;29.70;;;6.50;99.90;;;;;;5093950;28;20047;-66
2021/04/10 02:15:36;;;;;;;63.92;30.98;;;6.50;99.90;;;;;;5104040;28;20038;-66
2021/04/10 02:18:02;;;;;;;61.95;30.50;;;6.50;99.90;;;;;;5088551;28;20024;-66
2021/04/10 02:20:28;;;;;;;70.07;31.77;;;6.50;99.90;;;;;;5080203;28;20036;-66
2021/04/10 02:22:56;;;;;;;68.97;33.30;;;6.50;99.90;;;;;;5092483;28;20035;-66
2021/04/10 02:25:27;;;;;;;70.53;33.13;;;6.50;99.90;;;;;;5089546;28;20021;-66
2021/04/10 02:27:54;;;;;;;72.30;32.40;;;6.50;99.90;;;;;;5070488;28;20038;-66
2021/04/10 02:30:20;;;;;;;70.88;33.35;;;6.60;99.90;;;;;;5078531;28;20033;-66
2021/04/10 02:33:06;;;;;;;77.00;33.30;;;6.70;99.90;;;;;;5088725;28;20052;-66
2021/04/10 02:35:45;;;;;;;81.18;34.17;;;6.80;99.90;;;;;;5090054;28;20032;-66
2021/04/10 02:38:12;;;;;;;76.50;33.75;;;6.80;99.90;;;;;;5075926;28;20023;-66
2021/04/10 02:40:43;;;;;;;78.97;33.92;;;6.70;99.90;;;;;;5098389;28;20027;-66
2021/04/10 02:43:11;;;;;;;80.60;35.60;;;6.70;99.90;;;;;;5104399;28;20096;-66
2021/04/10 02:45:39;;;;;;;77.93;34.25;;;6.90;99.90;;;;;;5098880;28;20036;-66
2021/04/10 02:48:10;;;;;;;70.20;32.63;;;6.90;99.90;;;;;;5092366;28;20132;-66
2021/04/10 02:50:36;;;;;;;;;;;7.10;99.90;;;;;;5096347;28;20051;-66
2021/04/10 02:53:04;;;;;;;67.63;31.70;;;7.00;99.90;;;;;;5082299;28;19908;-66
2021/04/10 02:55:37;;;;;;;69.30;33.00;;;6.90;99.90;;;;;;5091362;28;20107;-66
2021/04/10 02:58:06;;;;;;;71.38;32.97;;;6.80;99.90;;;;;;5099388;28;20038;-67
2021/04/10 03:00:32;;;;;;;69.40;33.55;;;6.80;99.90;;;;;;5098033;28;20090;-67
2021/04/10 03:02:58;;;;;;;71.78;34.63;;;6.80;99.90;;;;;;5089762;28;20035;-66
2021/04/10 03:05:26;;;;;;;68.93;32.72;;;6.70;99.90;;;;;;5098577;28;20051;-66
2021/04/10 03:07:52;;;;;;;76.07;33.67;;;6.70;99.90;;;;;;5082700;28;20020;-66
2021/04/10 03:10:19;;;;;;;70.97;32.63;;;6.70;99.90;;;;;;5094862;28;20443;-66
2021/04/10 03:12:45;;;;;;;72.55;33.72;;;6.70;99.90;;;;;;5078074;28;20596;-66
2021/04/10 03:15:16;;;;;;;81.30;34.22;;;6.70;99.90;;;;;;5090936;28;20036;-66
2021/04/10 03:17:43;;;;;;;72.80;31.67;;;6.70;99.90;;;;;;5090642;28;20024;-66
2021/04/10 03:20:14;;;;;;;75.28;34.85;;;7.00;99.90;;;;;;5090654;28;20032;-66
2021/04/10 03:22:44;;;;;;;66.85;31.50;;;7.10;99.90;;;;;;5090699;28;20537;-66
2021/04/10 03:25:12;;;;;;;73.93;32.28;;;7.30;99.90;;;;;;5091300;28;20036;-66
2021/04/10 03:27:39;;;;;;;75.93;33.10;;;7.40;99.90;;;;;;5074877;28;20042;-66
2021/04/10 03:30:06;;;;;;;70.75;34.33;;;7.40;99.90;;;;;;5103438;28;20043;-66
2021/04/10 03:32:32;;;;;;;68.43;32.70;;;7.20;99.90;;;;;;5101513;28;21670;-66
2021/04/10 03:34:59;;;;;;;71.60;33.50;;;7.10;99.90;;;;;;5062676;28;20033;-66
2021/04/10 03:37:25;;;;;;;73.68;33.80;;;7.10;99.90;;;;;;5080418;28;20139;-66
2021/04/10 03:39:51;;;;;;;70.40;31.95;;;7.00;99.90;;;;;;5086118;28;20069;-66
2021/04/10 03:42:21;;;;;;;66.53;32.63;;;7.10;99.90;;;;;;5084784;28;20602;-66
2021/04/10 03:44:47;;;;;;;74.32;33.00;;;7.00;99.90;;;;;;5090105;28;20040;-66
2021/04/10 03:47:12;;;;;;;69.78;32.05;;;6.80;99.90;;;;;;5090612;28;20035;-66
2021/04/10 03:49:38;;;;;;;71.13;33.22;;;6.80;99.90;;;;;;5089433;28;20072;-66
2021/04/10 03:52:03;;;;;;;73.30;33.22;;;6.80;99.90;;;;;;5093166;28;20024;-66
2021/04/10 03:54:29;;;;;;;71.35;33.60;;;6.80;99.90;;;;;;5080702;28;20040;-66
2021/04/10 03:56:56;;;;;;;76.57;33.40;;;6.80;99.90;;;;;;5089735;28;20177;-66
2021/04/10 03:59:22;;;;;;;73.40;35.50;;;6.80;99.90;;;;;;5089128;28;20012;-67
2021/04/10 04:01:47;;;;;;;73.70;33.55;;;6.70;99.90;;;;;;5087676;28;20353;-67
2021/04/10 04:04:13;;;;;;;73.10;34.35;;;6.80;99.90;;;;;;5069658;28;20028;-66
2021/04/10 04:06:38;;;;;;;70.45;31.92;;;6.80;99.90;;;;;;5089073;28;20024;-66
2021/04/10 04:09:04;;;;;;;74.20;34.15;;;6.80;99.90;;;;;;5087024;28;20090;-66
2021/04/10 04:11:30;;;;;;;73.97;34.08;;;6.80;99.90;;;;;;5090779;28;20024;-66
2021/04/10 04:13:55;;;;;;;74.72;34.20;;;6.80;99.90;;;;;;5097363;28;20024;-66
2021/04/10 04:16:21;;;;;;;77.72;34.33;;;6.80;99.90;;;;;;5078425;28;20419;-66
2021/04/10 04:18:46;;;;;;;74.28;34.40;;;6.80;99.90;;;;;;5065718;28;20533;-66
2021/04/10 04:21:12;;;;;;;71.80;33.67;;;7.10;99.90;;;;;;5090704;28;20036;-66
2021/04/10 04:23:37;;;;;;;74.53;32.70;;;7.00;99.90;;;;;;5085735;28;20023;-66
2021/04/10 04:26:03;;;;;;;78.90;35.45;;;7.10;99.90;;;;;;5078736;28;20089;-66
2021/04/10 04:28:29;;;;;;;74.63;35.22;;;7.00;99.90;;;;;;5088105;28;20054;-66
2021/04/10 04:30:57;;;;;;;78.75;34.03;;;6.90;99.90;;;;;;5094423;28;20068;-66
2021/04/10 04:33:23;;;;;;;77.65;36.25;;;6.80;99.90;;;;;;5081742;28;20153;-66
2021/04/10 04:35:48;;;;;;;79.03;35.75;;;6.80;99.90;;;;;;5085837;28;20423;-66
2021/04/10 04:38:14;;;;;;;81.78;35.30;;;6.80;99.90;;;;;;5080598;28;20035;-66
2021/04/10 04:40:39;;;;;;;80.00;36.60;;;6.80;99.90;;;;;;5096589;28;20027;-66
2021/04/10 04:43:05;;;;;;;72.00;34.35;;;6.90;99.90;;;;;;5067381;28;20043;-66
2021/04/10 04:45:30;;;;;;;76.45;34.72;;;7.00;99.90;;;;;;5089924;28;20122;-66
2021/04/10 04:47:56;;;;;;;77.15;36.47;;;7.00;99.90;;;;;;5083439;28;20036;-66
2021/04/10 04:50:22;;;;;;;92.20;41.33;;;7.10;99.90;;;;;;5087047;28;20483;-66
2021/04/10 04:52:48;;;;;;;91.72;41.88;;;6.90;99.90;;;;;;5081642;28;20357;-66
2021/04/10 04:55:14;;;;;;;89.20;40.72;;;6.80;99.90;;;;;;5098297;28;20023;-66
2021/04/10 04:57:39;;;;;;;92.88;42.08;;;6.80;99.90;;;;;;5079815;28;20029;-66
2021/04/10 05:00:06;;;;;;;89.32;42.08;;;6.90;99.90;;;;;;5076943;28;20111;-66
2021/04/10 05:02:31;;;;;;;93.80;41.55;;;6.90;99.90;;;;;;5089462;28;20039;-66
2021/04/10 05:04:57;;;;;;;90.47;41.88;;;6.80;99.90;;;;;;5088981;28;20035;-66
2021/04/10 05:07:23;;;;;;;89.65;40.78;;;6.70;99.90;;;;;;5084577;28;20660;-66
2021/04/10 05:09:48;;;;;;;92.10;40.65;;;6.80;99.90;;;;;;5086861;28;20552;-66
2021/04/10 05:12:14;;;;;;;95.00;42.25;;;6.90;99.90;;;;;;5089332;28;20016;-66
2021/04/10 05:14:39;;;;;;;91.05;41.58;;;6.70;99.90;;;;;;5086948;28;20035;-66
2021/04/10 05:17:05;;;;;;;93.50;42.45;;;6.80;99.90;;;;;;5086185;28;20036;-67
2021/04/10 05:19:31;;;;;;;92.75;42.45;;;6.90;99.90;;;;;;5079095;28;20459;-66
2021/04/10 05:21:57;;;;;;;86.55;41.67;;;6.80;99.90;;;;;;5081265;28;20028;-67
2021/04/10 05:24:22;;;;;;;83.75;39.33;;;6.80;99.90;;;;;;5075870;28;20032;-67
2021/04/10 05:26:48;;;;;;;87.60;40.60;;;7.10;99.90;;;;;;5072862;28;20020;-67
2021/04/10 05:29:13;;;;;;;87.30;41.22;;;7.20;99.90;;;;;;5079985;28;20025;-67
2021/04/10 05:31:39;;;;;;;88.10;39.25;;;7.00;99.90;;;;;;5086920;28;20035;-67
2021/04/10 05:34:05;;;;;;;91.07;41.00;;;7.10;99.90;;;;;;5082945;28;20535;-67
2021/04/10 05:36:31;;;;;;;99.47;43.15;;;6.90;99.90;;;;;;5090215;28;20431;-68
2021/04/10 05:38:57;;;;;;;89.47;40.40;;;6.70;99.90;;;;;;5069869;28;20028;-66
2021/04/10 05:41:23;;;;;;;90.30;42.10;;;6.80;99.90;;;;;;5071752;28;20031;-67
2021/04/10 05:43:48;;;;;;;87.65;40.47;;;6.80;99.90;;;;;;5076920;28;20080;-67
2021/04/10 05:46:14;;;;;;;91.43;41.55;;;6.70;99.90;;;;;;5080908;28;20549;-67
2021/04/10 05:48:39;;;;;;;103.13;45.78;;;6.90;99.90;;;;;;5081976;28;20012;-67
2021/04/10 05:51:05;;;;;;;95.88;46.00;;;6.90;99.90;;;;;;5082012;28;20426;-67
2021/04/10 05:53:31;;;;;;;90.80;42.22;;;6.70;99.90;;;;;;5076250;28;20107;-67
2021/04/10 05:55:57;;;;;;;99.00;44.67;;;6.70;99.90;;;;;;5079058;28;20016;-66
2021/04/10 05:58:22;;;;;;;90.00;42.00;;;6.60;99.90;;;;;;5075698;28;20020;-66
2021/04/10 06:00:48;;;;;;;93.43;42.40;;;6.50;99.90;;;;;;5078225;28;20432;-66
2021/04/10 06:03:15;;;;;;;84.30;41.50;;;6.70;99.90;;;;;;5082598;28;20054;-66
2021/04/10 06:05:46;;;;;;;89.25;41.72;;;6.80;99.90;;;;;;5075764;28;20073;-66
2021/04/10 06:08:12;;;;;;;83.47;39.85;;;6.70;99.90;;;;;;5073217;28;20028;-66
2021/04/10 06:10:38;;;;;;;84.22;40.22;;;6.90;99.90;;;;;;5080703;28;20039;-66
2021/04/10 06:13:04;;;;;;;78.90;37.38;;;6.80;99.90;;;;;;5077537;28;20020;-66
2021/04/10 06:15:29;;;;;;;74.18;36.50;;;6.80;99.90;;;;;;5079721;28;20043;-66
2021/04/10 06:17:55;;;;;;;89.53;38.83;;;6.70;99.90;;;;;;5078951;28;20020;-67
2021/04/10 06:20:21;;;;;;;79.43;36.70;;;6.60;99.90;;;;;;5082316;28;20035;-66
2021/04/10 06:22:47;;;;;;;80.13;37.22;;;6.80;99.90;;;;;;5079490;28;20463;-67
2021/04/10 06:25:13;;;;;;;76.82;36.15;;;6.70;99.90;;;;;;5076534;28;20096;-66
2021/04/10 06:27:38;;;;;;;68.68;33.40;;;6.70;99.90;;;;;;5080212;28;20456;-66
2021/04/10 06:30:06;;;;;;;71.20;34.40;;;6.80;99.90;;;;;;5095999;28;20047;-67
2021/04/10 06:32:31;;;;;;;75.63;35.47;;;6.80;99.90;;;;;;5088529;28;20016;-66
2021/04/10 06:34:57;;;;;;;75.15;33.90;;;6.80;99.90;;;;;;5072520;28;20127;-67
2021/04/10 06:37:23;;;;;;;71.43;34.78;;;6.80;99.90;;;;;;5086277;28;20028;-68
2021/04/10 06:39:48;;;;;;;71.07;34.35;;;7.10;99.90;;;;;;5077217;28;20111;-67
2021/04/10 06:42:15;;;;;;;69.22;35.03;;;7.20;99.90;;;;;;5086589;28;20024;-67
2021/04/10 06:44:41;;;;;;;68.28;33.42;;;7.70;99.90;;;;;;5072458;28;20047;-69
2021/04/10 06:47:08;;;;;;;72.18;33.38;;;7.70;99.90;;;;;;5081685;28;20054;-67
2021/04/10 06:49:34;;;;;;;63.47;33.08;;;7.70;99.90;;;;;;5088017;28;20040;-70
2021/04/10 06:52:01;;;;;;;62.50;33.30;;;7.90;99.90;;;;;;5090504;28;20066;-68
2021/04/10 06:54:31;;;;;;;63.58;32.30;;;7.80;99.90;;;;;;5079274;28;20032;-67
2021/04/10 06:57:06;;;;;;;62.30;32.40;;;7.60;99.90;;;;;;5083022;28;20027;-67
2021/04/10 06:59:44;;;;;;;63.45;29.05;;;7.20;99.90;;;;;;5079974;28;20027;-67
2021/04/10 07:02:11;;;;;;;67.10;32.88;;;7.20;99.90;;;;;;5089451;28;20026;-67
2021/04/10 07:04:38;;;;;;;64.05;32.67;;;7.60;99.90;;;;;;5086326;28;20024;-66
2021/04/10 07:07:05;;;;;;;65.63;33.33;;;7.60;99.90;;;;;;5086976;28;20043;-66
2021/04/10 07:09:34;;;;;;;61.90;32.05;;;7.60;99.90;;;;;;5075676;28;20024;-66
2021/04/10 07:12:00;;;;;;;60.92;33.08;;;7.70;99.90;;;;;;5073775;28;20035;-67
2021/04/10 07:14:26;;;;;;;66.18;31.83;;;7.50;99.90;;;;;;5081941;28;20032;-67
2021/04/10 07:16:52;;;;;;;65.75;32.85;;;7.40;99.90;;;;;;5076357;28;20440;-67
2021/04/10 07:19:17;;;;;;;64.20;31.75;;;7.80;99.90;;;;;;5082393;28;20055;-67
2021/04/10 07:21:43;;;;;;;64.25;31.33;;;7.60;99.90;;;;;;5066824;28;20025;-67
2021/04/10 07:24:09;;;;;;;65.88;31.13;;;7.50;99.90;;;;;;5084507;28;20023;-67
2021/04/10 07:27:00;;;;;;;69.88;34.85;;;7.50;99.90;;;;;;5067156;28;20042;-66
2021/04/10 07:29:35;;;;;;;67.28;33.33;;;7.30;99.90;;;;;;5084328;28;20024;-65
2021/04/10 07:32:22;;;;;;;72.38;33.75;;;7.20;99.90;;;;;;5090209;28;20046;-65
2021/04/10 07:34:48;;;;;;;70.90;35.70;;;7.10;99.90;;;;;;5088042;28;20061;-66
2021/04/10 07:37:28;;;;;;;76.10;35.95;;;7.10;99.90;;;;;;5076697;28;20513;-65
2021/04/10 07:39:54;;;;;;;76.90;34.60;;;7.10;99.90;;;;;;5086378;28;20027;-65
2021/04/10 07:42:27;;;;;;;67.72;33.10;;;7.20;99.90;;;;;;5086967;28;20030;-65
2021/04/10 07:44:53;;;;;;;73.70;35.83;;;7.20;99.90;;;;;;5073925;28;20061;-65
2021/04/10 07:47:31;;;;;;;70.28;35.85;;;7.20;99.90;;;;;;5072974;28;20590;-65
2021/04/10 07:50:15;;;;;;;73.88;34.50;;;7.50;99.90;;;;;;5079211;28;20040;-76
2021/04/10 07:52:41;;;;;;;71.07;32.17;;;7.40;99.90;;;;;;5085261;28;20499;-75
2021/04/10 07:55:08;;;;;;;68.25;30.73;;;7.60;99.90;;;;;;5075315;28;20059;-74
2021/04/10 07:57:34;;;;;;;68.68;30.45;;;7.70;99.90;;;;;;5066566;28;20403;-74
2021/04/10 08:00:02;;;;;;;60.28;28.30;;;7.60;99.90;;;;;;5077232;28;20028;-74
2021/04/10 08:02:34;;;;;;;62.78;31.00;;;7.70;99.90;;;;;;5076937;28;20031;-75
2021/04/10 08:05:01;;;;;;;62.38;30.02;;;7.70;99.90;;;;;;5062958;28;20039;-74
2021/04/10 08:07:32;;;;;;;63.70;30.08;;;7.60;99.90;;;;;;5078857;28;20028;-73
2021/04/10 08:10:08;;;;;;;67.72;31.73;;;7.90;99.90;;;;;;5055919;28;20494;-73
2021/04/10 08:12:37;;;;;;;64.10;31.73;;;8.00;99.90;;;;;;5077063;28;20387;-73
2021/04/10 08:15:08;;;;;;;56.90;27.63;;;7.60;99.90;;;;;;5068349;28;20491;-74
2021/04/10 08:17:40;;;;;;;58.25;31.85;;;8.10;99.90;;;;;;5073832;28;20078;-73
2021/04/10 08:20:23;;;;;;;58.60;29.98;;;8.00;99.90;;;;;;5066032;28;20105;-63
2021/04/10 08:22:50;;;;;;;63.05;30.90;;;8.10;99.90;;;;;;5079069;28;20024;-64
2021/04/10 08:25:32;;;;;;;64.97;28.27;;;8.40;99.90;;;;;;5079448;28;20488;-64
2021/04/10 08:27:59;;;;;;;58.30;26.67;;;8.20;99.90;;;;;;5077328;28;20036;-65
2021/04/10 08:30:25;;;;;;;55.35;27.25;;;8.60;99.90;;;;;;5081152;28;20120;-65
2021/04/10 08:32:51;;;;;;;55.28;24.90;;;8.70;99.90;;;;;;5062818;28;20142;-64
2021/04/10 08:35:17;;;;;;;60.72;27.08;;;8.70;99.90;;;;;;5080194;28;20107;-64
2021/04/10 08:37:48;;;;;;;49.50;24.67;;;8.70;99.90;;;;;;5082714;28;20506;-64
2021/04/10 08:40:20;;;;;;;59.80;26.25;;;8.80;99.90;;;;;;5080577;28;20114;-66
2021/04/10 08:42:47;;;;;;;57.08;25.45;;;8.90;99.90;;;;;;5082951;28;20496;-67
2021/04/10 08:45:13;;;;;;;54.75;28.27;;;9.30;99.90;;;;;;5088148;28;20105;-64
2021/04/10 08:47:39;;;;;;;53.20;28.08;;;8.90;99.90;;;;;;5077334;28;20060;-66
2021/04/10 08:50:07;;;;;;;51.83;26.08;;;9.00;99.90;;;;;;5077113;28;20379;-65
2021/04/10 08:52:36;;;;;;;55.45;28.02;;;8.60;99.90;;;;;;5083870;28;20020;-66
2021/04/10 08:55:03;;;;;;;53.50;25.83;;;8.80;99.90;;;;;;5081508;28;20378;-63
2021/04/10 08:57:41;;;;;;;51.17;24.52;;;8.80;99.90;;;;;;5088781;28;20540;-66
2021/04/10 09:00:29;;;;;;;45.47;22.55;;;9.50;99.90;;;;;;5081684;28;20495;-66
2021/04/10 09:02:59;;;;;;;48.33;22.55;;;10.30;99.90;;;;;;5077242;28;20166;-66
2021/04/10 09:05:46;;;;;;;51.22;24.67;;;10.30;99.90;;;;;;5079189;28;20024;-66
2021/04/10 09:08:26;;;;;;;47.30;23.77;;;10.60;99.90;;;;;;5062560;28;20032;-66
2021/04/10 09:10:54;;;;;;;46.47;24.15;;;10.50;99.90;;;;;;5055241;28;20135;-66
2021/04/10 09:13:20;;;;;;;48.33;24.00;;;10.00;99.90;;;;;;5079094;28;20383;-66
2021/04/10 09:15:45;;;;;;;47.63;23.70;;;10.70;99.90;;;;;;5078383;28;20032;-66
2021/04/10 09:18:14;;;;;;;44.45;22.88;;;11.20;99.90;;;;;;5078646;28;20092;-66
2021/04/10 09:20:43;;;;;;;45.05;21.58;;;11.50;99.90;;;;;;5059674;28;20035;-67
2021/04/10 09:23:30;;;;;;;52.40;23.95;;;11.30;99.90;;;;;;5080105;28;20035;-66
2021/04/10 09:26:05;;;;;;;44.63;24.27;;;12.00;99.90;;;;;;5078989;28;20153;-67
2021/04/10 09:28:33;;;;;;;48.40;25.05;;;12.00;99.90;;;;;;5081221;28;20127;-67
2021/04/10 09:30:59;;;;;;;52.38;26.42;;;11.60;99.90;;;;;;5057769;28;20047;-67
2021/04/10 09:33:30;;;;;;;55.25;27.33;;;11.00;99.90;;;;;;5078015;28;20032;-66
2021/04/10 09:35:57;;;;;;;52.65;24.95;;;10.70;99.90;;;;;;5085161;28;20024;-66
2021/04/10 09:38:44;;;;;;;52.45;26.20;;;10.80;99.90;;;;;;5078258;28;20076;-66
2021/04/10 09:41:14;;;;;;;49.13;22.95;;;11.60;99.90;;;;;;5079783;28;20020;-67
2021/04/10 09:44:06;;;;;;;47.63;26.38;;;12.10;99.90;;;;;;5076796;28;20546;-67
2021/04/10 09:46:34;;;;;;;52.55;23.85;;;11.70;99.90;;;;;;5068595;28;20107;-67
2021/04/10 09:49:00;;;;;;;46.25;26.52;;;12.10;99.90;;;;;;5088716;28;20032;-67
2021/04/10 09:51:26;;;;;;;49.55;26.80;;;12.00;99.90;;;;;;5099010;28;20036;-67
2021/04/10 09:53:52;;;;;;;48.83;24.92;;;11.20;99.90;;;;;;5085599;28;20020;-66
2021/04/10 09:56:20;;;;;;;48.33;25.00;;;10.90;99.90;;;;;;5079647;28;20025;-66
2021/04/10 09:58:55;;;;;;;50.55;26.20;;;11.20;99.90;;;;;;5058877;28;20024;-67
2021/04/10 10:01:23;;;;;;;46.50;25.45;;;11.00;99.90;;;;;;5076687;28;20020;-66
2021/04/10 10:03:50;;;;;;;47.78;26.05;;;11.40;99.90;;;;;;5073463;28;20036;-67
2021/04/10 10:06:17;;;;;;;48.58;25.02;;;10.70;99.90;;;;;;5077884;28;20055;-67
2021/04/10 10:08:44;;;;;;;53.08;26.08;;;10.60;99.90;;;;;;5064390;28;20081;-67
2021/04/10 10:11:10;;;;;;;48.03;23.65;;;11.00;99.90;;;;;;5077094;28;20036;-67
2021/04/10 10:13:36;;;;;;;42.75;20.88;;;10.90;99.90;;;;;;5077084;28;20114;-67
2021/04/10 10:16:02;;;;;;;45.55;22.50;;;11.60;99.90;;;;;;5076064;28;20647;-67
2021/04/10 10:18:33;;;;;;;51.58;24.05;;;11.20;99.90;;;;;;5081972;28;20028;-67
2021/04/10 10:21:16;;;;;;;48.17;25.67;;;11.10;99.90;;;;;;5082720;28;20047;-67
2021/04/10 10:23:58;;;;;;;52.60;26.58;;;10.90;99.90;;;;;;5088436;28;20036;-68
2021/04/10 10:26:36;;;;;;;55.80;27.08;;;10.70;99.90;;;;;;5089066;28;20028;-68
2021/04/10 10:29:04;;;;;;;52.03;26.38;;;10.80;99.90;;;;;;5090133;28;20858;-67
2021/04/10 10:31:41;;;;;;;44.90;22.58;;;10.60;99.90;;;;;;5091104;28;20036;-68
2021/04/10 10:34:12;;;;;;;46.55;23.52;;;11.20;99.90;;;;;;5097308;28;20043;-68
2021/04/10 10:36:40;;;;;;;47.75;23.95;;;11.10;99.90;;;;;;5094299;28;20529;-68
2021/04/10 10:39:08;;;;;;;50.08;25.60;;;11.10;99.90;;;;;;5085920;28;20088;-68
2021/04/10 10:41:44;;;;;;;48.70;25.45;;;11.70;99.90;;;;;;5098176;28;20607;-68
2021/04/10 10:44:10;;;;;;;50.85;25.95;;;11.90;99.90;;;;;;5090011;28;20143;-68
2021/04/10 10:46:36;;;;;;;47.30;24.85;;;12.00;99.90;;;;;;5080121;28;20641;-68
2021/04/10 10:49:08;;;;;;;49.95;24.55;;;11.70;99.90;;;;;;5090424;28;20120;-68
2021/04/10 10:51:36;;;;;;;48.40;25.60;;;12.20;99.90;;;;;;5092137;28;20032;-68
2021/04/10 10:54:03;;;;;;;48.80;24.23;;;11.50;99.90;;;;;;5089726;28;20027;-68
2021/04/10 10:56:29;;;;;;;49.95;25.42;;;11.30;99.90;;;;;;5090010;28;20031;-68
2021/04/10 10:59:00;;;;;;;49.83;23.80;;;11.00;99.90;;;;;;5076832;28;20070;-68
2021/04/10 11:01:33;;;;;;;48.58;24.73;;;10.90;99.90;;;;;;5077027;28;20402;-68
2021/04/10 11:04:26;;;;;;;45.35;23.40;;;10.90;99.90;;;;;;5082662;28;20028;-69
2021/04/10 11:07:00;;;;;;;46.50;25.15;;;11.20;99.90;;;;;;5075926;28;20394;-68
2021/04/10 11:09:28;;;;;;;43.80;22.20;;;11.00;99.90;;;;;;5084627;28;20039;-69
2021/04/10 11:12:00;;;;;;;53.03;24.38;;;10.50;99.90;;;;;;5082616;28;20029;-69
2021/04/10 11:14:30;;;;;;;45.90;23.08;;;10.40;99.90;;;;;;5084969;28;20016;-69
2021/04/10 11:16:59;;;;;;;48.42;26.48;;;10.70;99.90;;;;;;5083098;28;20043;-69
2021/04/10 11:19:29;;;;;;;52.90;27.45;;;10.50;99.90;;;;;;5078770;28;20479;-69
2021/04/10 11:21:55;;;;;;;53.17;25.98;;;10.30;99.90;;;;;;5079004;28;20034;-69
2021/04/10 11:24:22;;;;;;;53.30;27.50;;;10.70;99.90;;;;;;5076999;28;20368;-69
2021/04/10 11:26:55;;;;;;;51.80;27.50;;;10.70;99.90;;;;;;5078748;28;20093;-69
2021/04/10 11:29:28;;;;;;;53.33;29.90;;;10.30;99.90;;;;;;5083498;28;20486;-70
2021/04/10 11:32:26;;;;;;;49.42;26.48;;;10.50;99.90;;;;;;5082651;28;20039;-69
2021/04/10 11:34:57;;;;;;;51.53;25.75;;;10.50;99.90;;;;;;5060911;28;20086;-70
2021/04/10 11:37:35;;;;;;;55.03;26.85;;;10.60;99.90;;;;;;5064060;28;20348;-69
2021/04/10 11:40:07;;;;;;;49.40;22.65;;;11.30;99.90;;;;;;5086515;28;20114;-70
2021/04/10 11:42:47;;;;;;;48.55;26.10;;;10.90;99.90;;;;;;5065772;28;20400;-69
2021/04/10 11:45:22;;;;;;;49.92;24.00;;;10.40;99.90;;;;;;5076963;28;20024;-69
2021/04/10 11:47:48;;;;;;;53.58;26.13;;;10.30;99.90;;;;;;5079326;28;20051;-69
2021/04/10 11:50:16;;;;;;;57.88;30.40;;;10.50;99.90;;;;;;5079154;28;20075;-69
2021/04/10 11:52:44;;;;;;;59.55;30.38;;;10.50;99.90;;;;;;5059671;28;20785;-70
2021/04/10 11:55:17;;;;;;;55.55;27.85;;;10.50;99.90;;;;;;5077262;28;20566;-70
2021/04/10 11:57:44;;;;;;;54.75;28.33;;;10.80;99.90;;;;;;5077077;28;20402;-70
2021/04/10 12:00:22;;;;;;;51.78;25.08;;;10.30;99.90;;;;;;5076606;28;20066;-68
2021/04/10 12:02:48;;;;;;;50.97;25.67;;;10.10;99.90;;;;;;5075538;28;20039;-68
2021/04/10 12:05:41;;;;;;;50.28;24.45;;;9.70;99.90;;;;;;5084155;28;20387;-68
2021/04/10 12:08:28;;;;;;;53.45;25.70;;;10.00;99.90;;;;;;5050820;28;20134;-68
2021/04/10 12:11:00;;;;;;;57.25;26.63;;;10.20;99.90;;;;;;5080239;28;20494;-68
2021/04/10 12:13:27;;;;;;;51.72;26.10;;;10.20;99.90;;;;;;5083996;28;20383;-68
2021/04/10 12:15:59;;;;;;;56.45;25.70;;;10.10;99.90;;;;;;5064484;28;20045;-69
2021/04/10 12:18:28;;;;;;;50.58;24.05;;;10.50;99.90;;;;;;5061519;28;20498;-69
2021/04/10 12:20:58;;;;;;;51.95;25.55;;;10.40;99.90;;;;;;5074968;28;20032;-71
2021/04/10 12:23:23;;;;;;;40.93;19.87;;;10.50;99.90;;;;;;5075281;28;20032;-71
2021/04/10 12:25:51;;;;;;;41.08;20.45;;;10.90;99.90;;;;;;5077994;28;20271;-71
2021/04/10 12:28:18;;;;;;;41.28;20.02;;;10.70;99.90;;;;;;5081421;28;20051;-69
2021/04/10 12:30:44;;;;;;;42.35;19.45;;;10.10;99.90;;;;;;5086317;28;20038;-69
2021/04/10 12:33:10;;;;;;;43.67;21.90;;;10.10;99.90;;;;;;5087613;28;20053;-69
2021/04/10 12:35:36;;;;;;;48.70;22.80;;;10.00;99.90;;;;;;5081033;28;20075;-69
2021/04/10 12:38:02;;;;;;;54.28;23.15;;;9.80;99.90;;;;;;5063619;28;20028;-69
2021/04/10 12:40:28;;;;;;;47.30;21.55;;;10.00;99.90;;;;;;5080367;28;20561;-69
2021/04/10 12:42:53;;;;;;;48.30;23.92;;;9.90;99.90;;;;;;5086220;28;20039;-69